< < Back
Terminal Aerodrome Forecast


Current Version              Previous Versions:   1  2  3  4  5  6  7  8  9  

Terminal Aerodrome Forecast

826
FTUS42 KTAE 251736
TAFDHN
TAF
KDHN 251736Z 2518/2618 13010KT P6SM SCT050
     FM260200 VRB03KT P6SM SCT250
     FM261500 19006KT P6SM SCT250=



Latest METAR

439
SAUS70 KWBC 261200 RRJ
MTRDHN
METAR KDHN 261153Z 14006KT 7SM CLR 21/20 A3022 RMK AO2 SLP227 T02110200
10228 20189 53017


USA.gov is the U.S. government's official web portal to all federal, state and local government web resources and services.